Time;durP1;ratioP1;P1;durP2;ratioP2;P2;SDS_P1;SDS_P2;PMS_P1;PMS_P2;Temp;Humidity;BMP_temperature;BMP_pressure;BME280_temperature;BME280_humidity;BME280_pressure;Samples;Min_cycle;Max_cycle;Signal;HPM_P1;HPM_P2
2022/06/02 00:00:15;;;;;;;1.13;0.40;;;19.90;58.60;;;;;;4973346;28;20031;-68
2022/06/02 00:03:10;;;;;;;0.98;0.45;;;19.90;58.70;;;;;;4973361;28;20019;-69
2022/06/02 00:05:57;;;;;;;0.55;0.47;;;19.90;58.70;;;;;;4974371;28;20027;-68
2022/06/02 00:08:26;;;;;;;0.63;0.50;;;19.90;58.80;;;;;;4974290;28;20027;-68
2022/06/02 00:10:55;;;;;;;0.50;0.50;;;19.90;58.90;;;;;;4973134;28;20042;-68
2022/06/02 00:13:44;;;;;;;0.75;0.50;;;19.90;59.00;;;;;;4972879;28;20023;-68
2022/06/02 00:16:13;;;;;;;1.42;0.40;;;19.90;59.10;;;;;;4973101;28;20062;-68
2022/06/02 00:19:01;;;;;;;0.55;0.43;;;19.90;59.20;;;;;;4957124;28;20019;-68
2022/06/02 00:21:46;;;;;;;0.88;0.35;;;19.90;59.40;;;;;;4957140;28;20037;-68
2022/06/02 00:24:34;;;;;;;2.40;0.43;;;19.90;59.50;;;;;;4957475;28;20022;-68
2022/06/02 00:27:11;;;;;;;0.90;0.50;;;19.90;59.80;;;;;;4973851;28;20038;-68
2022/06/02 00:29:40;;;;;;;1.38;0.47;;;19.90;59.80;;;;;;4957617;28;20098;-68
2022/06/02 00:32:12;;;;;;;2.42;0.50;;;20.00;60.00;;;;;;4974159;28;20045;-68
2022/06/02 00:34:56;;;;;;;0.32;0.30;;;20.00;60.00;;;;;;4974108;28;20027;-68
2022/06/02 00:37:41;;;;;;;3.55;0.47;;;20.00;61.00;;;;;;4973879;28;20026;-68
2022/06/02 00:40:07;;;;;;;1.33;0.68;;;20.00;60.10;;;;;;4973939;28;20478;-68
2022/06/02 00:42:40;;;;;;;0.90;0.38;;;20.00;60.20;;;;;;4972230;28;20058;-68
2022/06/02 00:45:12;;;;;;;0.57;0.40;;;20.00;60.00;;;;;;4972812;28;20117;-68
2022/06/02 00:47:53;;;;;;;2.20;0.50;;;20.00;60.00;;;;;;4973571;28;20449;-69
2022/06/02 00:50:34;;;;;;;1.75;0.40;;;20.00;60.00;;;;;;4972610;28;20374;-68
2022/06/02 00:53:09;;;;;;;1.10;0.50;;;20.00;60.00;;;;;;4993003;28;20516;-68
2022/06/02 00:58:59;;;;;;;1.33;0.50;;;20.00;59.90;;;;;;4993343;28;20049;-68
2022/06/02 01:01:31;;;;;;;0.93;0.70;;;20.00;59.90;;;;;;4991249;28;20046;-68
2022/06/02 01:03:58;;;;;;;0.95;0.55;;;20.00;59.90;;;;;;4973085;28;20474;-69
2022/06/02 01:06:23;;;;;;;0.65;0.40;;;20.00;59.90;;;;;;4972412;28;20023;-68
2022/06/02 01:09:27;;;;;;;2.25;0.60;;;20.00;60.00;;;;;;4973670;28;20018;-68
2022/06/02 01:11:58;;;;;;;0.80;0.40;;;20.00;59.90;;;;;;4973341;28;20034;-69
2022/06/02 01:14:42;;;;;;;0.50;0.50;;;20.00;60.00;;;;;;4973446;28;20385;-68
2022/06/02 01:17:21;;;;;;;0.55;0.50;;;20.00;60.10;;;;;;4973479;28;20039;-69
2022/06/02 01:20:03;;;;;;;1.38;0.60;;;20.00;60.10;;;;;;4972283;28;20080;-69
2022/06/02 01:22:55;;;;;;;0.50;0.50;;;20.00;60.20;;;;;;4973341;28;20054;-68
2022/06/02 01:25:36;;;;;;;4.00;0.70;;;20.00;60.10;;;;;;4973392;28;20031;-68
2022/06/02 01:28:26;;;;;;;0.88;0.50;;;20.00;60.20;;;;;;4973430;28;20026;-69
2022/06/02 01:30:52;;;;;;;0.85;0.40;;;20.00;60.20;;;;;;4973376;28;20031;-69
2022/06/02 01:33:22;;;;;;;0.95;0.50;;;20.00;60.20;;;;;;4973419;28;20470;-69
2022/06/02 01:36:25;;;;;;;0.80;0.50;;;20.00;60.20;;;;;;4972102;28;20026;-69
2022/06/02 01:39:08;;;;;;;0.50;0.30;;;20.00;60.30;;;;;;4972330;28;20477;-68
2022/06/02 01:42:01;;;;;;;0.65;0.45;;;20.00;60.20;;;;;;4957043;28;20158;-68
2022/06/02 01:44:36;;;;;;;0.40;0.40;;;20.00;60.30;;;;;;4973185;28;20055;-68
2022/06/02 01:47:27;;;;;;;2.63;0.50;;;20.00;60.40;;;;;;4971831;28;20497;-68
2022/06/02 01:49:55;;;;;;;0.90;0.43;;;20.00;60.40;;;;;;4972013;28;20023;-68
2022/06/02 01:52:42;;;;;;;2.78;0.40;;;20.00;60.40;;;;;;4972932;28;20027;-69
2022/06/02 01:55:22;;;;;;;0.95;0.45;;;20.00;60.30;;;;;;4973086;28;20501;-68
2022/06/02 01:57:48;;;;;;;0.40;0.40;;;20.00;60.40;;;;;;4971866;28;20030;-68
2022/06/02 02:00:21;;;;;;;0.75;0.47;;;20.00;60.40;;;;;;4973093;28;20090;-68
2022/06/02 02:03:45;;;;;;;1.40;0.40;;;19.90;60.40;;;;;;4962596;28;20474;-68
2022/06/02 02:06:23;;;;;;;0.95;0.50;;;19.90;60.30;;;;;;4947269;29;20066;-68
2022/06/02 02:08:58;;;;;;;1.60;0.40;;;19.90;60.40;;;;;;4951351;29;20518;-69
2022/06/02 02:11:39;;;;;;;0.82;0.40;;;19.90;60.40;;;;;;4951562;29;20129;-68
2022/06/02 02:14:42;;;;;;;0.43;0.40;;;20.00;60.60;;;;;;4954585;28;20039;-68
2022/06/02 02:17:14;;;;;;;0.93;0.50;;;19.90;60.50;;;;;;4955053;29;20517;-68
2022/06/02 02:19:58;;;;;;;2.10;0.50;;;20.00;60.60;;;;;;4954830;29;20031;-68
2022/06/02 02:22:51;;;;;;;1.27;0.50;;;19.90;60.60;;;;;;4954892;29;20032;-68
2022/06/02 02:25:21;;;;;;;1.95;0.47;;;19.90;60.50;;;;;;4954935;29;20028;-68
2022/06/02 02:28:14;;;;;;;0.80;0.60;;;19.90;60.50;;;;;;4954809;29;20031;-68
2022/06/02 02:30:46;;;;;;;5.80;0.50;;;19.90;60.60;;;;;;4954609;29;20041;-68
2022/06/02 02:33:32;;;;;;;0.47;0.40;;;19.90;60.60;;;;;;4954884;29;20107;-68
2022/06/02 02:36:15;;;;;;;0.50;0.40;;;19.90;60.60;;;;;;4953032;29;20061;-68
2022/06/02 02:39:07;;;;;;;1.40;0.47;;;19.90;60.70;;;;;;4954413;29;20090;-68
2022/06/02 02:41:41;;;;;;;1.20;0.40;;;19.90;60.70;;;;;;4954959;29;20074;-69
2022/06/02 02:44:36;;;;;;;0.57;0.43;;;19.90;60.70;;;;;;4955389;29;20039;-68
2022/06/02 02:47:33;;;;;;;0.63;0.50;;;19.90;60.70;;;;;;4955345;29;20042;-68
2022/06/02 02:50:09;;;;;;;1.20;0.40;;;19.90;60.70;;;;;;4955595;29;20119;-68
2022/06/02 02:52:54;;;;;;;0.45;0.43;;;19.90;60.70;;;;;;4972843;28;20077;-68
2022/06/02 02:55:34;;;;;;;7.40;0.70;;;19.90;60.70;;;;;;4974621;28;20512;-69
2022/06/02 02:58:06;;;;;;;1.17;0.60;;;19.90;60.70;;;;;;4974645;28;20018;-69
2022/06/02 03:00:59;;;;;;;0.93;0.40;;;19.90;60.70;;;;;;4975486;28;20042;-68
2022/06/02 03:04:05;;;;;;;0.38;0.30;;;19.90;60.70;;;;;;4960171;28;20037;-68
2022/06/02 03:06:32;;;;;;;0.80;0.43;;;19.90;60.70;;;;;;4953892;29;20035;-68
2022/06/02 03:09:13;;;;;;;0.80;0.30;;;19.90;60.70;;;;;;4954227;29;20122;-68
2022/06/02 03:11:44;;;;;;;0.85;0.40;;;19.90;60.70;;;;;;4953918;29;20031;-68
2022/06/02 03:14:31;;;;;;;1.40;0.60;;;19.90;60.70;;;;;;4953881;29;20112;-68
2022/06/02 03:17:03;;;;;;;1.00;0.30;;;19.90;60.70;;;;;;4954088;29;20506;-68
2022/06/02 03:20:01;;;;;;;0.30;0.30;;;19.90;60.70;;;;;;4953939;29;20148;-68
2022/06/02 03:22:34;;;;;;;0.88;0.50;;;19.90;61.90;;;;;;4951497;29;20039;-69
2022/06/02 03:25:03;;;;;;;0.50;0.40;;;19.90;60.80;;;;;;4953243;28;20041;-68
2022/06/02 03:27:34;;;;;;;0.60;0.57;;;19.90;60.90;;;;;;4953869;29;20059;-68
2022/06/02 03:30:14;;;;;;;0.50;0.50;;;19.90;60.90;;;;;;4953871;29;20503;-69
2022/06/02 03:32:58;;;;;;;0.50;0.40;;;19.90;61.50;;;;;;4953689;29;20055;-68
2022/06/02 03:35:40;;;;;;;0.35;0.35;;;19.90;60.90;;;;;;4953458;29;20106;-69
2022/06/02 03:38:20;;;;;;;1.15;0.40;;;19.90;60.90;;;;;;4953502;29;20037;-69
2022/06/02 03:40:57;;;;;;;1.15;0.68;;;19.90;60.90;;;;;;4953380;29;20086;-69
2022/06/02 03:43:28;;;;;;;0.82;0.55;;;19.90;61.00;;;;;;4954135;29;20070;-69
2022/06/02 03:46:26;;;;;;;1.63;0.40;;;19.90;61.00;;;;;;4955525;29;20043;-69
2022/06/02 03:48:59;;;;;;;1.02;0.60;;;19.90;61.00;;;;;;4954357;29;20024;-69
2022/06/02 03:51:39;;;;;;;0.45;0.43;;;19.90;61.00;;;;;;4961146;28;20031;-68
2022/06/02 03:54:23;;;;;;;0.90;0.30;;;19.90;61.20;;;;;;4973546;28;20026;-68
2022/06/02 03:57:13;;;;;;;1.63;0.40;;;19.90;61.20;;;;;;4974508;28;20027;-68
2022/06/02 04:00:17;;;;;;;0.50;0.30;;;19.90;61.20;;;;;;4974758;28;20035;-68
2022/06/02 04:02:54;;;;;;;0.65;0.57;;;19.90;61.20;;;;;;4974462;28;20505;-68
2022/06/02 04:05:20;;;;;;;2.65;0.40;;;19.90;61.20;;;;;;4973120;28;20397;-68
2022/06/02 04:07:51;;;;;;;1.80;0.52;;;19.90;61.20;;;;;;4974366;28;20035;-68
2022/06/02 04:10:29;;;;;;;1.05;0.43;;;19.90;61.20;;;;;;4974283;28;20505;-68
2022/06/02 04:16:21;;;;;;;0.88;0.45;;;19.90;61.30;;;;;;4974381;28;20042;-68
2022/06/02 04:20:34;;;;;;;0.68;0.57;;;19.90;61.30;;;;;;4973905;28;20497;-68
2022/06/02 04:22:13;;;;;;;2.22;1.25;;;19.90;61.30;;;;;;4972954;28;20390;-68
2022/06/02 04:24:47;;;;;;;0.88;0.38;;;19.90;61.30;;;;;;4973070;28;20038;-68
2022/06/02 04:27:26;;;;;;;1.45;0.65;;;19.90;61.30;;;;;;4972952;28;20052;-68
2022/06/02 04:30:24;;;;;;;0.35;0.30;;;19.90;61.40;;;;;;4974385;28;20022;-68
2022/06/02 04:33:17;;;;;;;0.63;0.40;;;19.90;61.50;;;;;;4973316;28;20038;-68
2022/06/02 04:36:01;;;;;;;0.70;0.60;;;19.90;61.50;;;;;;4973497;28;20062;-68
2022/06/02 04:39:21;;;;;;;0.30;0.30;;;19.80;61.50;;;;;;4957241;28;20031;-68
2022/06/02 04:41:56;;;;;;;0.40;0.40;;;19.90;61.60;;;;;;4971573;28;20038;-68
2022/06/02 04:44:46;;;;;;;2.90;0.65;;;19.90;61.60;;;;;;4955525;28;20038;-68
2022/06/02 04:47:34;;;;;;;0.50;0.38;;;19.80;61.60;;;;;;4955459;28;20105;-69
2022/06/02 04:50:26;;;;;;;0.30;0.30;;;19.90;61.70;;;;;;4955480;28;20078;-68
2022/06/02 04:53:17;;;;;;;4.35;0.43;;;19.90;61.70;;;;;;4952290;28;20170;-68
2022/06/02 04:56:01;;;;;;;0.30;0.30;;;19.90;61.70;;;;;;4952225;29;20102;-68
2022/06/02 04:58:35;;;;;;;0.40;0.40;;;19.90;61.70;;;;;;4952325;29;20403;-68
2022/06/02 05:01:32;;;;;;;0.80;0.50;;;19.80;61.70;;;;;;4939775;28;20053;-68
2022/06/02 05:04:35;;;;;;;2.10;0.60;;;19.90;61.70;;;;;;4967506;28;20038;-69
2022/06/02 05:07:09;;;;;;;1.90;0.43;;;19.80;61.80;;;;;;4969185;28;20162;-68
2022/06/02 05:10:02;;;;;;;0.80;0.63;;;19.90;61.90;;;;;;4953530;28;20039;-68
2022/06/02 05:13:00;;;;;;;0.40;0.40;;;19.90;61.90;;;;;;4954850;28;20023;-68
2022/06/02 05:15:35;;;;;;;0.40;0.40;;;19.90;62.00;;;;;;4956188;28;20035;-68
2022/06/02 05:18:42;;;;;;;0.57;0.40;;;19.90;62.00;;;;;;4970461;28;20027;-68
2022/06/02 05:21:34;;;;;;;1.40;0.40;;;19.90;62.20;;;;;;4911727;29;20047;-67
2022/06/02 05:24:09;;;;;;;4.97;0.40;;;19.90;62.10;;;;;;4912262;29;20152;-69
2022/06/02 05:26:49;;;;;;;0.80;0.35;;;19.90;61.50;;;;;;4896681;29;20040;-68
2022/06/02 05:29:37;;;;;;;1.17;0.60;;;19.80;60.80;;;;;;4896406;29;20020;-69
2022/06/02 05:32:30;;;;;;;0.65;0.47;;;19.90;60.10;;;;;;4896335;29;20032;-68
2022/06/02 05:35:20;;;;;;;0.55;0.50;;;19.80;59.80;;;;;;4912188;29;20024;-68
2022/06/02 05:38:34;;;;;;;7.57;0.70;;;19.80;59.00;;;;;;4910472;29;20059;-68
2022/06/02 05:41:38;;;;;;;1.30;0.50;;;19.80;59.90;;;;;;4911327;29;20052;-68
2022/06/02 05:44:36;;;;;;;2.13;1.02;;;19.80;59.80;;;;;;4856652;29;20080;-68
2022/06/02 05:47:09;;;;;;;3.85;1.20;;;19.70;59.70;;;;;;4840944;29;20042;-68
2022/06/02 05:49:56;;;;;;;2.65;1.00;;;19.70;59.60;;;;;;4846151;29;20099;-68
2022/06/02 05:52:35;;;;;;;3.35;1.20;;;19.70;59.40;;;;;;4846954;29;20087;-68
2022/06/02 05:55:24;;;;;;;4.97;1.13;;;19.70;59.20;;;;;;4842651;29;20050;-68
2022/06/02 05:58:14;;;;;;;5.95;1.20;;;19.70;59.30;;;;;;4882628;29;20033;-68
2022/06/02 06:00:39;;;;;;;6.15;1.40;;;19.70;59.20;;;;;;4882609;29;20049;-68
2022/06/02 06:03:17;;;;;;;9.05;1.25;;;19.70;59.10;;;;;;4909567;29;20426;-68
2022/06/02 06:06:18;;;;;;;10.02;1.52;;;19.70;58.90;;;;;;4917049;29;20060;-68
2022/06/02 06:08:50;;;;;;;6.93;1.15;;;19.70;58.90;;;;;;4903820;29;20028;-68
2022/06/02 06:11:27;;;;;;;9.90;1.40;;;19.60;58.90;;;;;;4917133;29;20119;-68
2022/06/02 06:14:24;;;;;;;4.75;1.25;;;19.60;59.00;;;;;;4913372;29;20072;-69
2022/06/02 06:16:58;;;;;;;6.32;1.35;;;19.60;59.10;;;;;;4903347;29;20035;-68
2022/06/02 06:19:27;;;;;;;5.32;1.20;;;19.60;59.20;;;;;;4925533;29;20039;-68
2022/06/02 06:22:11;;;;;;;4.43;1.50;;;19.60;59.20;;;;;;4956844;28;20033;-68
2022/06/02 06:24:50;;;;;;;4.47;1.20;;;19.60;59.20;;;;;;4976288;28;20030;-68
2022/06/02 06:27:38;;;;;;;3.88;1.48;;;19.60;59.00;;;;;;4975205;28;20398;-68
2022/06/02 06:30:06;;;;;;;4.07;1.17;;;19.60;59.00;;;;;;4975995;28;20027;-69
2022/06/02 06:32:31;;;;;;;7.90;1.52;;;19.60;60.10;;;;;;4976320;28;20485;-68
2022/06/02 06:35:03;;;;;;;4.10;1.55;;;19.60;59.10;;;;;;4975878;28;20034;-69
2022/06/02 06:37:34;;;;;;;8.88;1.95;;;19.60;59.10;;;;;;4976074;28;20030;-68
2022/06/02 06:40:03;;;;;;;5.60;1.35;;;19.60;59.00;;;;;;4974805;28;20469;-69
2022/06/02 06:42:38;;;;;;;6.00;1.90;;;19.60;59.00;;;;;;4976036;28;20066;-68
2022/06/02 06:45:21;;;;;;;7.38;1.40;;;19.60;59.10;;;;;;4974585;28;20033;-68
2022/06/02 06:47:51;;;;;;;;;;;19.60;59.10;;;;;;4974931;28;20122;-69
2022/06/02 06:50:23;;;;;;;8.10;2.30;;;19.50;59.10;;;;;;4975858;28;19913;-69
2022/06/02 06:53:04;;;;;;;6.63;1.42;;;19.50;59.10;;;;;;4959000;28;20031;-68
2022/06/02 06:55:44;;;;;;;8.02;1.30;;;19.50;59.00;;;;;;4958291;28;20038;-68
2022/06/02 06:58:13;;;;;;;9.95;1.45;;;19.50;59.00;;;;;;4975845;28;20027;-68
2022/06/02 07:00:59;;;;;;;6.90;1.63;;;19.50;59.10;;;;;;4974588;28;20528;-68
2022/06/02 07:03:46;;;;;;;4.75;1.50;;;19.50;59.10;;;;;;4975781;28;20042;-69
2022/06/02 07:06:34;;;;;;;4.32;1.77;;;19.50;59.10;;;;;;4975519;28;20030;-68
2022/06/02 07:09:25;;;;;;;4.22;1.58;;;19.50;59.10;;;;;;4974325;28;20474;-69
2022/06/02 07:15:28;;;;;;;3.63;1.20;;;19.50;59.20;;;;;;4972890;28;20421;-69
2022/06/02 07:18:11;;;;;;;4.13;1.30;;;19.50;59.20;;;;;;4973216;28;20042;-69
2022/06/02 07:20:44;;;;;;;4.43;1.08;;;19.50;59.20;;;;;;4973300;28;20042;-69
2022/06/02 07:23:34;;;;;;;2.53;1.25;;;19.50;59.30;;;;;;4960934;28;20573;-69
2022/06/02 07:26:18;;;;;;;5.15;1.10;;;19.50;59.30;;;;;;4953753;29;20410;-68
2022/06/02 07:29:12;;;;;;;3.35;1.17;;;19.50;59.40;;;;;;4953797;29;20102;-69
2022/06/02 07:32:04;;;;;;;2.58;1.02;;;19.50;59.40;;;;;;4953830;29;20032;-68
2022/06/02 07:35:04;;;;;;;3.13;1.15;;;19.50;59.40;;;;;;4953681;29;20106;-68
2022/06/02 07:37:49;;;;;;;3.05;1.02;;;19.50;59.50;;;;;;4953716;29;20023;-69
2022/06/02 07:40:38;;;;;;;1.55;1.08;;;19.50;59.50;;;;;;4953374;29;20035;-69
2022/06/02 07:43:28;;;;;;;2.20;0.93;;;19.50;59.50;;;;;;4953261;29;20027;-69
2022/06/02 07:46:09;;;;;;;4.53;1.27;;;19.50;59.50;;;;;;4954261;29;20047;-68
2022/06/02 07:49:02;;;;;;;3.85;1.20;;;19.50;59.60;;;;;;4955691;29;20022;-68
2022/06/02 07:51:33;;;;;;;1.77;0.80;;;19.50;59.60;;;;;;4955489;29;20111;-68
2022/06/02 07:54:17;;;;;;;3.92;1.00;;;19.50;59.60;;;;;;4954080;29;20482;-68
2022/06/02 07:57:16;;;;;;;3.38;1.33;;;19.50;59.60;;;;;;4955186;29;20602;-68
2022/06/02 07:59:59;;;;;;;3.72;0.95;;;19.50;59.60;;;;;;4938078;29;20390;-68
2022/06/02 08:02:38;;;;;;;2.40;0.90;;;19.50;59.60;;;;;;4954083;29;20042;-68
2022/06/02 08:05:14;;;;;;;2.25;0.95;;;19.50;59.60;;;;;;4954022;29;20027;-68
2022/06/02 08:07:55;;;;;;;2.72;1.00;;;19.50;59.60;;;;;;4955197;29;20015;-68
2022/06/02 08:10:50;;;;;;;3.20;0.90;;;19.50;59.60;;;;;;4953832;28;20114;-68
2022/06/02 08:13:28;;;;;;;4.10;0.90;;;19.50;59.60;;;;;;4953742;29;20397;-68
2022/06/02 08:16:15;;;;;;;3.25;0.90;;;19.40;59.30;;;;;;4950743;28;20039;-68
2022/06/02 08:19:06;;;;;;;3.58;1.05;;;19.50;59.60;;;;;;4954918;29;20509;-68
2022/06/02 08:21:51;;;;;;;1.90;0.82;;;19.40;59.40;;;;;;4955103;29;20028;-69
2022/06/02 08:24:36;;;;;;;2.63;0.90;;;19.50;59.50;;;;;;4970130;28;20034;-68
2022/06/02 08:27:23;;;;;;;2.67;0.95;;;19.50;59.40;;;;;;4953458;29;20027;-68
2022/06/02 08:30:09;;;;;;;2.35;0.90;;;19.40;58.80;;;;;;4954630;29;20031;-68
2022/06/02 08:33:00;;;;;;;2.22;0.98;;;19.40;59.00;;;;;;4953818;29;20023;-68
2022/06/02 08:35:45;;;;;;;2.28;1.00;;;19.40;59.00;;;;;;4953669;29;20086;-68
2022/06/02 08:38:35;;;;;;;2.67;0.90;;;19.40;58.90;;;;;;4953687;29;20027;-68
2022/06/02 08:41:28;;;;;;;2.20;1.00;;;19.40;58.90;;;;;;4953031;29;20028;-68
2022/06/02 08:44:06;;;;;;;3.03;1.05;;;19.40;58.90;;;;;;4954557;28;20030;-68
2022/06/02 08:46:49;;;;;;;1.13;0.82;;;19.40;58.80;;;;;;4953157;29;20170;-68
2022/06/02 08:49:23;;;;;;;;;;;19.40;58.90;;;;;;4954042;29;20027;-68
2022/06/02 08:51:49;;;;;;;2.40;1.00;;;19.40;59.00;;;;;;4954362;29;19906;-68
2022/06/02 08:54:51;;;;;;;1.60;0.68;;;19.40;59.20;;;;;;4954500;28;20031;-69
2022/06/02 08:57:37;;;;;;;4.60;1.00;;;19.40;59.30;;;;;;4953175;29;20106;-68
2022/06/02 09:00:28;;;;;;;2.83;1.00;;;19.40;59.30;;;;;;4953126;29;20075;-68
2022/06/02 09:03:28;;;;;;;1.70;0.73;;;19.40;59.20;;;;;;4953195;29;20023;-68
2022/06/02 09:06:00;;;;;;;4.00;0.90;;;19.40;59.30;;;;;;4954469;28;20474;-68
2022/06/02 09:08:35;;;;;;;0.73;0.70;;;19.40;59.20;;;;;;4954441;29;20098;-68
2022/06/02 09:11:26;;;;;;;1.80;0.90;;;19.40;59.30;;;;;;4953858;28;20058;-68
2022/06/02 09:13:54;;;;;;;1.88;0.88;;;19.40;59.40;;;;;;4954294;28;20023;-68
2022/06/02 09:16:49;;;;;;;2.55;0.77;;;19.50;59.50;;;;;;4972623;28;20077;-68
2022/06/02 09:19:31;;;;;;;3.40;0.70;;;19.40;59.60;;;;;;4973592;28;20103;-68
2022/06/02 09:21:56;;;;;;;2.47;0.80;;;19.50;59.70;;;;;;4970695;28;20035;-68
2022/06/02 09:24:25;;;;;;;1.30;1.02;;;19.50;59.50;;;;;;4957759;29;20050;-68
2022/06/02 09:26:59;;;;;;;1.88;0.80;;;19.50;59.60;;;;;;4958162;29;20078;-68
2022/06/02 09:29:32;;;;;;;1.38;0.88;;;19.50;59.60;;;;;;4958156;29;20144;-68
2022/06/02 09:32:03;;;;;;;;;;;19.50;59.60;;;;;;4957297;29;20363;-68
2022/06/02 09:34:48;;;;;;;1.08;0.70;;;19.50;59.60;;;;;;4957993;28;19990;-68
2022/06/02 09:37:13;;;;;;;0.82;0.57;;;19.50;59.70;;;;;;4957808;29;20031;-68
2022/06/02 09:40:05;;;;;;;0.75;0.60;;;19.50;59.70;;;;;;4957663;29;20027;-68
2022/06/02 09:42:46;;;;;;;2.00;0.70;;;19.50;59.80;;;;;;4956586;29;20414;-67
2022/06/02 09:45:17;;;;;;;1.17;0.80;;;19.50;59.80;;;;;;4957706;29;20038;-68
2022/06/02 09:48:11;;;;;;;1.98;0.70;;;19.50;59.80;;;;;;4957711;29;20094;-68
2022/06/02 09:51:06;;;;;;;0.88;0.68;;;19.50;59.70;;;;;;4955494;29;20035;-67
2022/06/02 09:54:10;;;;;;;1.75;0.65;;;19.50;59.70;;;;;;4955459;29;20487;-68
2022/06/02 09:57:55;;;;;;;3.35;0.98;;;19.50;59.70;;;;;;4955258;28;20395;-68
2022/06/02 09:59:52;;;;;;;1.75;1.00;;;19.50;59.70;;;;;;4955534;29;20039;-68
2022/06/02 10:02:27;;;;;;;1.60;0.90;;;19.50;59.70;;;;;;4954987;29;20130;-68
2022/06/02 10:05:23;;;;;;;1.13;0.63;;;19.50;59.30;;;;;;4955398;29;20066;-67
2022/06/02 10:08:12;;;;;;;2.38;0.85;;;19.50;59.30;;;;;;4955019;29;20038;-68
2022/06/02 10:10:58;;;;;;;1.35;0.85;;;19.50;59.00;;;;;;4955327;29;20125;-68
2022/06/02 10:13:49;;;;;;;2.03;0.80;;;19.50;59.00;;;;;;4955139;29;20382;-68
2022/06/02 10:16:23;;;;;;;0.88;0.73;;;19.50;59.30;;;;;;4972807;28;20034;-68
2022/06/02 10:19:13;;;;;;;1.48;0.63;;;19.50;59.40;;;;;;4974458;28;20489;-68
2022/06/02 10:21:57;;;;;;;1.63;0.50;;;19.50;59.30;;;;;;4973926;28;20043;-68
2022/06/02 10:24:46;;;;;;;0.70;0.60;;;19.60;59.40;;;;;;4974306;28;20027;-67
2022/06/02 10:27:22;;;;;;;0.50;0.40;;;19.50;59.00;;;;;;4974566;28;20073;-68
2022/06/02 10:30:25;;;;;;;0.40;0.40;;;19.50;58.90;;;;;;4975158;28;20022;-68
2022/06/02 10:33:02;;;;;;;2.33;0.75;;;19.50;58.70;;;;;;4976212;28;20031;-67
2022/06/02 10:35:43;;;;;;;2.45;0.73;;;19.50;58.50;;;;;;4974845;28;20035;-68
2022/06/02 10:38:48;;;;;;;1.23;0.73;;;19.50;58.20;;;;;;4975809;28;20031;-68
2022/06/02 10:41:25;;;;;;;0.70;0.60;;;19.50;58.00;;;;;;4975791;28;20019;-68
2022/06/02 10:44:05;;;;;;;1.40;0.70;;;19.60;58.00;;;;;;4976089;28;20027;-68
2022/06/02 10:46:53;;;;;;;1.55;0.80;;;19.50;58.10;;;;;;4975840;28;20070;-68
2022/06/02 10:49:44;;;;;;;2.00;0.75;;;19.60;58.20;;;;;;4975975;28;20035;-68
2022/06/02 10:52:47;;;;;;;0.90;0.70;;;19.60;58.60;;;;;;4974554;28;20023;-68
2022/06/02 10:55:33;;;;;;;0.55;0.40;;;19.60;58.40;;;;;;4975737;28;20035;-68
2022/06/02 10:58:04;;;;;;;1.05;0.60;;;19.60;58.80;;;;;;4974816;28;20114;-68
2022/06/02 11:00:45;;;;;;;1.15;0.60;;;19.60;58.90;;;;;;4975935;28;20486;-68
2022/06/02 11:03:32;;;;;;;1.23;0.70;;;19.60;58.70;;;;;;4975688;28;20027;-68
2022/06/02 11:06:25;;;;;;;0.80;0.52;;;19.60;58.70;;;;;;4975576;28;20022;-68
2022/06/02 11:09:09;;;;;;;;;;;19.60;58.60;;;;;;4976079;28;20026;-68
2022/06/02 11:12:06;;;;;;;0.80;0.60;;;19.60;58.60;;;;;;4975546;28;19913;-68
2022/06/02 11:14:51;;;;;;;0.75;0.73;;;19.60;58.60;;;;;;4974148;28;20054;-68
2022/06/02 11:17:48;;;;;;;1.38;0.60;;;19.60;58.20;;;;;;4975402;28;20019;-69
2022/06/02 11:20:20;;;;;;;0.82;0.47;;;19.60;57.80;;;;;;4972697;28;20054;-68
2022/06/02 11:23:23;;;;;;;1.00;0.73;;;19.60;58.40;;;;;;4964071;28;20035;-67
2022/06/02 11:26:07;;;;;;;;;;;19.60;58.10;;;;;;4954456;29;20067;-68
2022/06/02 11:29:04;;;;;;;1.20;0.70;;;19.70;57.90;;;;;;4953806;29;19906;-68
2022/06/02 11:31:44;;;;;;;0.45;0.40;;;19.70;58.10;;;;;;4953613;29;20035;-68
2022/06/02 11:34:15;;;;;;;1.23;0.65;;;19.70;58.30;;;;;;4953575;29;20066;-68
2022/06/02 11:36:47;;;;;;;1.30;0.60;;;19.70;58.00;;;;;;4953758;29;20035;-68
2022/06/02 11:39:32;;;;;;;1.05;0.73;;;19.70;58.40;;;;;;4953711;29;20041;-68
2022/06/02 11:42:03;;;;;;;0.85;0.55;;;19.70;58.30;;;;;;4953623;29;20031;-68
2022/06/02 11:44:50;;;;;;;1.02;0.57;;;19.70;58.20;;;;;;4953463;29;20035;-68
2022/06/02 11:47:41;;;;;;;1.65;0.47;;;19.70;57.90;;;;;;4952893;29;20043;-68
2022/06/02 11:50:44;;;;;;;2.00;0.60;;;19.70;57.80;;;;;;4953111;29;20036;-68
2022/06/02 11:53:10;;;;;;;;;;;19.70;57.50;;;;;;4937625;29;20224;-67
2022/06/02 11:55:38;;;;;;;0.65;0.60;;;19.70;57.80;;;;;;4953254;29;19989;-68
2022/06/02 11:58:21;;;;;;;0.43;0.43;;;19.70;58.00;;;;;;4937231;29;20086;-68
2022/06/02 12:01:21;;;;;;;0.50;0.50;;;19.70;58.00;;;;;;4934047;29;20035;-67
2022/06/02 12:04:14;;;;;;;1.05;0.80;;;19.70;57.90;;;;;;4933725;29;20039;-68
2022/06/02 12:07:10;;;;;;;0.52;0.50;;;19.80;58.10;;;;;;4934164;29;20065;-68
2022/06/02 12:09:41;;;;;;;0.77;0.50;;;19.70;58.10;;;;;;4933856;29;20090;-68
2022/06/02 12:12:25;;;;;;;1.80;0.70;;;19.80;58.40;;;;;;4933856;29;20036;-68
2022/06/02 12:15:12;;;;;;;1.05;0.50;;;19.80;58.30;;;;;;4940563;28;20498;-67
2022/06/02 12:18:02;;;;;;;1.00;0.40;;;19.80;58.20;;;;;;4952737;29;20487;-68
2022/06/02 12:20:49;;;;;;;0.45;0.45;;;19.80;58.20;;;;;;4952752;29;20074;-68
2022/06/02 12:23:31;;;;;;;0.55;0.55;;;19.80;58.30;;;;;;4952570;29;20116;-68
2022/06/02 12:25:59;;;;;;;0.73;0.52;;;19.80;58.20;;;;;;4953038;29;20034;-68
2022/06/02 12:28:36;;;;;;;0.77;0.50;;;19.80;58.20;;;;;;4952492;29;20066;-68
2022/06/02 12:31:24;;;;;;;0.73;0.50;;;19.80;58.40;;;;;;4916563;29;20509;-68
2022/06/02 12:34:23;;;;;;;0.55;0.40;;;19.80;58.30;;;;;;4914405;29;20055;-68
2022/06/02 12:37:07;;;;;;;0.50;0.50;;;19.80;58.40;;;;;;4914683;29;20048;-68
2022/06/02 12:39:51;;;;;;;1.00;0.57;;;19.80;58.60;;;;;;4921294;28;20044;-68
2022/06/02 12:42:54;;;;;;;1.52;0.60;;;19.80;58.40;;;;;;4973715;28;20039;-68
2022/06/02 12:46:17;;;;;;;3.30;0.50;;;19.90;58.30;;;;;;4973799;28;20045;-67
2022/06/02 12:48:50;;;;;;;;;;;19.90;58.30;;;;;;4951077;28;20042;-68
2022/06/02 12:51:27;;;;;;;1.02;0.50;;;19.90;58.20;;;;;;4955758;28;19913;-68
2022/06/02 12:54:07;;;;;;;0.65;0.50;;;19.90;57.90;;;;;;4971682;28;20059;-68
2022/06/02 12:56:51;;;;;;;0.40;0.40;;;19.90;57.80;;;;;;4955378;28;20070;-68
2022/06/02 12:59:44;;;;;;;0.47;0.47;;;19.90;58.10;;;;;;4971275;28;20576;-68
2022/06/02 13:02:29;;;;;;;0.70;0.60;;;19.90;58.10;;;;;;4971381;28;20039;-68
2022/06/02 13:05:40;;;;;;;0.43;0.40;;;19.90;58.10;;;;;;4971517;28;20126;-68
2022/06/02 13:08:43;;;;;;;0.63;0.55;;;19.90;57.90;;;;;;4957949;28;20123;-68
2022/06/02 13:11:37;;;;;;;1.50;0.60;;;20.00;58.00;;;;;;4971419;28;20047;-68
2022/06/02 13:14:27;;;;;;;0.70;0.40;;;20.00;58.20;;;;;;4955156;28;20139;-68
2022/06/02 13:17:01;;;;;;;0.98;0.50;;;20.00;58.30;;;;;;4971247;28;20051;-68
2022/06/02 13:19:55;;;;;;;0.60;0.50;;;20.00;58.60;;;;;;4971276;28;20525;-68
2022/06/02 13:22:52;;;;;;;1.05;0.60;;;20.00;58.30;;;;;;4971098;28;20125;-68
2022/06/02 13:25:36;;;;;;;0.60;0.60;;;20.00;58.10;;;;;;4969711;28;20038;-68
2022/06/02 13:28:21;;;;;;;0.60;0.60;;;20.00;57.90;;;;;;4973517;28;20023;-68
2022/06/02 13:31:28;;;;;;;1.33;0.50;;;20.00;57.80;;;;;;4973150;28;20055;-68
2022/06/02 13:34:11;;;;;;;1.17;0.68;;;20.00;58.00;;;;;;4971473;28;20034;-68
2022/06/02 13:37:04;;;;;;;0.50;0.50;;;20.10;58.10;;;;;;4971077;28;20401;-68
2022/06/02 13:39:29;;;;;;;;;;;20.10;58.20;;;;;;4971596;28;20587;-68
2022/06/02 13:42:23;;;;;;;1.23;0.47;;;20.10;58.40;;;;;;4971339;28;19958;-68
2022/06/02 13:45:05;;;;;;;0.38;0.38;;;20.10;58.50;;;;;;4970968;28;20027;-67
2022/06/02 13:48:11;;;;;;;0.65;0.60;;;20.10;58.40;;;;;;4954550;28;20151;-68
2022/06/02 13:51:14;;;;;;;0.82;0.80;;;20.10;58.30;;;;;;4971316;28;20027;-68
2022/06/02 13:57:34;;;;;;;0.45;0.45;;;20.20;58.40;;;;;;4932877;29;20561;-68
2022/06/02 14:00:24;;;;;;;1.70;0.50;;;20.20;58.40;;;;;;4932531;29;20031;-68
2022/06/02 14:03:14;;;;;;;0.77;0.50;;;20.20;58.20;;;;;;4932546;29;20144;-68
2022/06/02 14:06:05;;;;;;;0.45;0.40;;;20.20;58.00;;;;;;4932581;29;20047;-68
2022/06/02 14:08:42;;;;;;;1.48;0.55;;;20.20;58.30;;;;;;4923106;29;20553;-68
2022/06/02 14:11:26;;;;;;;1.20;0.40;;;20.30;58.00;;;;;;4936110;29;20039;-68
2022/06/02 14:14:31;;;;;;;0.50;0.50;;;20.30;57.60;;;;;;4935941;29;20166;-68
2022/06/02 14:17:24;;;;;;;0.57;0.43;;;20.30;58.00;;;;;;4965533;28;20062;-68
2022/06/02 14:20:08;;;;;;;0.50;0.38;;;20.30;58.20;;;;;;4955098;29;20050;-68
2022/06/02 14:23:04;;;;;;;0.80;0.40;;;20.30;58.30;;;;;;4947487;29;20493;-68
2022/06/02 14:25:54;;;;;;;0.47;0.47;;;20.40;58.30;;;;;;4935928;29;20039;-68
2022/06/02 14:28:46;;;;;;;0.60;0.50;;;20.40;58.30;;;;;;4935459;29;20052;-68